sensor_id;sensor_type;location;lat;lon;timestamp;P1;durP1;ratioP1;P2;durP2;ratioP2
55589;SDS011;41452;42.780;23.116;2023-03-23T00:01:08;16.20;;;7.55;;
55589;SDS011;41452;42.780;23.116;2023-03-23T00:03:36;14.43;;;7.57;;
55589;SDS011;41452;42.780;23.116;2023-03-23T00:06:02;12.77;;;7.35;;
55589;SDS011;41452;42.780;23.116;2023-03-23T00:08:29;16.55;;;7.32;;
55589;SDS011;41452;42.780;23.116;2023-03-23T00:10:56;16.08;;;7.95;;
55589;SDS011;41452;42.780;23.116;2023-03-23T00:13:25;14.75;;;7.57;;
55589;SDS011;41452;42.780;23.116;2023-03-23T00:15:51;16.13;;;7.70;;
55589;SDS011;41452;42.780;23.116;2023-03-23T00:18:17;17.98;;;7.80;;
55589;SDS011;41452;42.780;23.116;2023-03-23T00:20:53;18.65;;;8.13;;
55589;SDS011;41452;42.780;23.116;2023-03-23T00:23:25;14.35;;;7.68;;
55589;SDS011;41452;42.780;23.116;2023-03-23T00:25:52;22.05;;;8.57;;
55589;SDS011;41452;42.780;23.116;2023-03-23T00:28:22;27.67;;;9.13;;
55589;SDS011;41452;42.780;23.116;2023-03-23T00:31:05;17.75;;;8.68;;
55589;SDS011;41452;42.780;23.116;2023-03-23T00:33:32;14.70;;;7.47;;
55589;SDS011;41452;42.780;23.116;2023-03-23T00:36:03;16.60;;;8.18;;
55589;SDS011;41452;42.780;23.116;2023-03-23T00:38:29;22.02;;;8.02;;
55589;SDS011;41452;42.780;23.116;2023-03-23T00:40:55;16.15;;;8.35;;
55589;SDS011;41452;42.780;23.116;2023-03-23T00:43:22;13.63;;;7.20;;
55589;SDS011;41452;42.780;23.116;2023-03-23T00:45:49;14.32;;;7.75;;
55589;SDS011;41452;42.780;23.116;2023-03-23T00:48:21;13.73;;;7.25;;
55589;SDS011;41452;42.780;23.116;2023-03-23T00:50:48;17.60;;;8.20;;
55589;SDS011;41452;42.780;23.116;2023-03-23T00:53:14;17.73;;;7.43;;
55589;SDS011;41452;42.780;23.116;2023-03-23T00:55:41;15.95;;;7.68;;
55589;SDS011;41452;42.780;23.116;2023-03-23T00:58:07;16.90;;;8.23;;
55589;SDS011;41452;42.780;23.116;2023-03-23T01:00:33;14.63;;;7.65;;
55589;SDS011;41452;42.780;23.116;2023-03-23T01:02:58;13.43;;;7.35;;
55589;SDS011;41452;42.780;23.116;2023-03-23T01:05:23;11.05;;;6.03;;
55589;SDS011;41452;42.780;23.116;2023-03-23T01:07:49;16.27;;;7.18;;
55589;SDS011;41452;42.780;23.116;2023-03-23T01:10:14;14.98;;;8.07;;
55589;SDS011;41452;42.780;23.116;2023-03-23T01:12:41;11.02;;;7.00;;
55589;SDS011;41452;42.780;23.116;2023-03-23T01:15:09;14.25;;;7.20;;
55589;SDS011;41452;42.780;23.116;2023-03-23T01:17:38;18.45;;;8.18;;
55589;SDS011;41452;42.780;23.116;2023-03-23T01:20:03;15.82;;;7.30;;
55589;SDS011;41452;42.780;23.116;2023-03-23T01:22:31;14.10;;;7.05;;
55589;SDS011;41452;42.780;23.116;2023-03-23T01:24:57;11.40;;;6.13;;
55589;SDS011;41452;42.780;23.116;2023-03-23T01:27:22;12.95;;;7.25;;
55589;SDS011;41452;42.780;23.116;2023-03-23T01:29:48;11.73;;;6.10;;
55589;SDS011;41452;42.780;23.116;2023-03-23T01:32:13;14.07;;;6.25;;
55589;SDS011;41452;42.780;23.116;2023-03-23T01:34:39;16.75;;;7.30;;
55589;SDS011;41452;42.780;23.116;2023-03-23T01:37:04;15.00;;;6.97;;
55589;SDS011;41452;42.780;23.116;2023-03-23T01:39:30;14.43;;;6.57;;
55589;SDS011;41452;42.780;23.116;2023-03-23T01:41:55;14.85;;;7.15;;
55589;SDS011;41452;42.780;23.116;2023-03-23T01:46:46;16.95;;;7.35;;
55589;SDS011;41452;42.780;23.116;2023-03-23T01:49:13;14.52;;;6.55;;
55589;SDS011;41452;42.780;23.116;2023-03-23T01:51:47;12.50;;;6.55;;
55589;SDS011;41452;42.780;23.116;2023-03-23T01:54:17;15.55;;;7.03;;
55589;SDS011;41452;42.780;23.116;2023-03-23T01:56:55;14.00;;;6.72;;
55589;SDS011;41452;42.780;23.116;2023-03-23T01:59:24;14.93;;;7.38;;
55589;SDS011;41452;42.780;23.116;2023-03-23T02:01:53;17.58;;;8.00;;
55589;SDS011;41452;42.780;23.116;2023-03-23T02:04:20;15.27;;;7.35;;
55589;SDS011;41452;42.780;23.116;2023-03-23T02:06:48;14.27;;;7.70;;
55589;SDS011;41452;42.780;23.116;2023-03-23T02:09:14;13.27;;;7.15;;
55589;SDS011;41452;42.780;23.116;2023-03-23T02:11:42;14.82;;;6.75;;
55589;SDS011;41452;42.780;23.116;2023-03-23T02:14:07;19.90;;;8.93;;
55589;SDS011;41452;42.780;23.116;2023-03-23T02:27:30;25.27;;;9.50;;
55589;SDS011;41452;42.780;23.116;2023-03-23T02:30:31;18.33;;;8.30;;
55589;SDS011;41452;42.780;23.116;2023-03-23T02:38:50;22.15;;;10.20;;
55589;SDS011;41452;42.780;23.116;2023-03-23T02:41:22;23.02;;;10.13;;
55589;SDS011;41452;42.780;23.116;2023-03-23T02:43:51;21.85;;;10.10;;
55589;SDS011;41452;42.780;23.116;2023-03-23T02:46:18;22.65;;;10.55;;
55589;SDS011;41452;42.780;23.116;2023-03-23T02:48:46;20.60;;;9.95;;
55589;SDS011;41452;42.780;23.116;2023-03-23T02:51:15;23.30;;;10.68;;
55589;SDS011;41452;42.780;23.116;2023-03-23T02:53:45;19.92;;;9.82;;
55589;SDS011;41452;42.780;23.116;2023-03-23T02:56:14;20.80;;;9.77;;
55589;SDS011;41452;42.780;23.116;2023-03-23T02:58:40;24.30;;;10.82;;
55589;SDS011;41452;42.780;23.116;2023-03-23T03:01:16;22.60;;;10.30;;
55589;SDS011;41452;42.780;23.116;2023-03-23T03:04:06;23.70;;;10.75;;
55589;SDS011;41452;42.780;23.116;2023-03-23T03:06:43;21.13;;;11.02;;
55589;SDS011;41452;42.780;23.116;2023-03-23T03:09:37;25.23;;;9.68;;
55589;SDS011;41452;42.780;23.116;2023-03-23T03:12:16;21.42;;;11.57;;
55589;SDS011;41452;42.780;23.116;2023-03-23T03:14:55;24.95;;;11.25;;
55589;SDS011;41452;42.780;23.116;2023-03-23T03:17:42;22.15;;;10.82;;
55589;SDS011;41452;42.780;23.116;2023-03-23T03:20:16;23.65;;;10.25;;
55589;SDS011;41452;42.780;23.116;2023-03-23T03:22:42;24.67;;;10.68;;
55589;SDS011;41452;42.780;23.116;2023-03-23T03:25:10;18.77;;;10.43;;
55589;SDS011;41452;42.780;23.116;2023-03-23T03:27:38;19.45;;;9.70;;
55589;SDS011;41452;42.780;23.116;2023-03-23T03:30:06;23.02;;;9.88;;
55589;SDS011;41452;42.780;23.116;2023-03-23T03:32:38;24.50;;;10.80;;
55589;SDS011;41452;42.780;23.116;2023-03-23T03:35:11;22.08;;;10.93;;
55589;SDS011;41452;42.780;23.116;2023-03-23T03:37:38;19.23;;;9.30;;
55589;SDS011;41452;42.780;23.116;2023-03-23T03:40:10;20.10;;;9.85;;
55589;SDS011;41452;42.780;23.116;2023-03-23T03:42:39;20.00;;;9.23;;
55589;SDS011;41452;42.780;23.116;2023-03-23T03:45:06;19.38;;;10.02;;
55589;SDS011;41452;42.780;23.116;2023-03-23T03:47:33;23.70;;;10.77;;
55589;SDS011;41452;42.780;23.116;2023-03-23T03:49:59;21.58;;;9.23;;
55589;SDS011;41452;42.780;23.116;2023-03-23T03:52:25;21.70;;;10.32;;
55589;SDS011;41452;42.780;23.116;2023-03-23T03:54:50;19.30;;;9.57;;
55589;SDS011;41452;42.780;23.116;2023-03-23T03:57:16;20.45;;;9.35;;
55589;SDS011;41452;42.780;23.116;2023-03-23T03:59:42;24.83;;;10.75;;
55589;SDS011;41452;42.780;23.116;2023-03-23T04:02:08;21.25;;;9.80;;
55589;SDS011;41452;42.780;23.116;2023-03-23T04:04:34;21.33;;;9.02;;
55589;SDS011;41452;42.780;23.116;2023-03-23T04:06:59;17.65;;;9.73;;
55589;SDS011;41452;42.780;23.116;2023-03-23T04:09:26;20.95;;;8.75;;
55589;SDS011;41452;42.780;23.116;2023-03-23T04:11:52;17.20;;;8.65;;
55589;SDS011;41452;42.780;23.116;2023-03-23T04:14:17;21.10;;;9.18;;
55589;SDS011;41452;42.780;23.116;2023-03-23T04:16:42;20.45;;;10.00;;
55589;SDS011;41452;42.780;23.116;2023-03-23T04:19:08;19.80;;;9.25;;
55589;SDS011;41452;42.780;23.116;2023-03-23T04:21:34;19.70;;;9.50;;
55589;SDS011;41452;42.780;23.116;2023-03-23T04:23:59;20.08;;;8.88;;
55589;SDS011;41452;42.780;23.116;2023-03-23T04:26:28;17.15;;;8.25;;
55589;SDS011;41452;42.780;23.116;2023-03-23T04:28:54;20.50;;;8.75;;
55589;SDS011;41452;42.780;23.116;2023-03-23T04:31:20;19.30;;;9.32;;
55589;SDS011;41452;42.780;23.116;2023-03-23T04:33:49;25.88;;;9.73;;
55589;SDS011;41452;42.780;23.116;2023-03-23T04:36:17;17.55;;;9.07;;
55589;SDS011;41452;42.780;23.116;2023-03-23T04:38:43;14.93;;;7.63;;
55589;SDS011;41452;42.780;23.116;2023-03-23T04:41:09;18.52;;;8.68;;
55589;SDS011;41452;42.780;23.116;2023-03-23T04:43:34;19.60;;;9.25;;
55589;SDS011;41452;42.780;23.116;2023-03-23T04:46:06;16.17;;;8.65;;
55589;SDS011;41452;42.780;23.116;2023-03-23T04:48:33;18.40;;;8.07;;
55589;SDS011;41452;42.780;23.116;2023-03-23T04:51:00;21.40;;;8.02;;
55589;SDS011;41452;42.780;23.116;2023-03-23T04:53:28;18.48;;;8.90;;
55589;SDS011;41452;42.780;23.116;2023-03-23T04:55:54;16.08;;;8.93;;
55589;SDS011;41452;42.780;23.116;2023-03-23T04:58:19;16.38;;;8.65;;
55589;SDS011;41452;42.780;23.116;2023-03-23T05:00:45;21.30;;;9.57;;
55589;SDS011;41452;42.780;23.116;2023-03-23T05:03:14;16.83;;;9.07;;
55589;SDS011;41452;42.780;23.116;2023-03-23T05:05:43;17.15;;;8.70;;
55589;SDS011;41452;42.780;23.116;2023-03-23T05:08:12;19.75;;;8.00;;
55589;SDS011;41452;42.780;23.116;2023-03-23T05:10:38;18.15;;;8.80;;
55589;SDS011;41452;42.780;23.116;2023-03-23T05:13:04;19.45;;;9.23;;
55589;SDS011;41452;42.780;23.116;2023-03-23T05:15:29;20.10;;;10.18;;
55589;SDS011;41452;42.780;23.116;2023-03-23T05:17:55;20.25;;;9.70;;
55589;SDS011;41452;42.780;23.116;2023-03-23T05:20:20;19.70;;;9.90;;
55589;SDS011;41452;42.780;23.116;2023-03-23T05:22:47;22.63;;;10.68;;
55589;SDS011;41452;42.780;23.116;2023-03-23T05:25:14;24.20;;;10.95;;
55589;SDS011;41452;42.780;23.116;2023-03-23T05:27:44;19.52;;;9.40;;
55589;SDS011;41452;42.780;23.116;2023-03-23T05:30:13;19.33;;;9.35;;
55589;SDS011;41452;42.780;23.116;2023-03-23T05:32:42;21.60;;;9.27;;
55589;SDS011;41452;42.780;23.116;2023-03-23T05:35:08;26.02;;;11.00;;
55589;SDS011;41452;42.780;23.116;2023-03-23T05:37:33;29.98;;;11.48;;
55589;SDS011;41452;42.780;23.116;2023-03-23T05:39:59;29.48;;;12.98;;
55589;SDS011;41452;42.780;23.116;2023-03-23T05:42:26;20.83;;;10.52;;
55589;SDS011;41452;42.780;23.116;2023-03-23T05:44:52;20.92;;;9.95;;
55589;SDS011;41452;42.780;23.116;2023-03-23T05:47:18;20.17;;;10.88;;
55589;SDS011;41452;42.780;23.116;2023-03-23T05:49:43;19.33;;;9.98;;
55589;SDS011;41452;42.780;23.116;2023-03-23T05:52:08;23.08;;;10.50;;
55589;SDS011;41452;42.780;23.116;2023-03-23T05:54:34;26.38;;;12.50;;
55589;SDS011;41452;42.780;23.116;2023-03-23T05:57:01;35.13;;;15.55;;
55589;SDS011;41452;42.780;23.116;2023-03-23T05:59:27;36.30;;;17.10;;
55589;SDS011;41452;42.780;23.116;2023-03-23T06:01:52;38.05;;;17.95;;
55589;SDS011;41452;42.780;23.116;2023-03-23T06:04:19;38.72;;;18.70;;
55589;SDS011;41452;42.780;23.116;2023-03-23T06:06:46;45.55;;;20.75;;
55589;SDS011;41452;42.780;23.116;2023-03-23T06:09:11;56.45;;;23.98;;
55589;SDS011;41452;42.780;23.116;2023-03-23T06:11:36;44.10;;;21.48;;
55589;SDS011;41452;42.780;23.116;2023-03-23T06:14:02;47.53;;;20.63;;
55589;SDS011;41452;42.780;23.116;2023-03-23T06:16:28;40.67;;;19.40;;
55589;SDS011;41452;42.780;23.116;2023-03-23T06:18:54;39.85;;;18.15;;
55589;SDS011;41452;42.780;23.116;2023-03-23T06:21:21;36.05;;;17.13;;
55589;SDS011;41452;42.780;23.116;2023-03-23T06:23:47;34.47;;;16.83;;
55589;SDS011;41452;42.780;23.116;2023-03-23T06:26:14;35.55;;;16.73;;
55589;SDS011;41452;42.780;23.116;2023-03-23T06:28:42;32.92;;;14.50;;
55589;SDS011;41452;42.780;23.116;2023-03-23T06:31:08;27.02;;;14.40;;
55589;SDS011;41452;42.780;23.116;2023-03-23T06:33:34;33.30;;;17.52;;
55589;SDS011;41452;42.780;23.116;2023-03-23T06:36:00;31.48;;;17.13;;
55589;SDS011;41452;42.780;23.116;2023-03-23T06:38:27;29.48;;;16.77;;
55589;SDS011;41452;42.780;23.116;2023-03-23T06:40:52;31.80;;;15.60;;
55589;SDS011;41452;42.780;23.116;2023-03-23T06:43:18;24.25;;;11.40;;
55589;SDS011;41452;42.780;23.116;2023-03-23T06:45:44;27.80;;;14.10;;
55589;SDS011;41452;42.780;23.116;2023-03-23T06:48:10;25.75;;;13.68;;
55589;SDS011;41452;42.780;23.116;2023-03-23T06:50:35;26.38;;;13.13;;
55589;SDS011;41452;42.780;23.116;2023-03-23T06:53:01;26.30;;;13.95;;
55589;SDS011;41452;42.780;23.116;2023-03-23T06:55:26;26.63;;;14.80;;
55589;SDS011;41452;42.780;23.116;2023-03-23T06:57:51;26.92;;;14.77;;
55589;SDS011;41452;42.780;23.116;2023-03-23T07:00:17;26.75;;;12.82;;
55589;SDS011;41452;42.780;23.116;2023-03-23T07:02:43;24.83;;;13.98;;
55589;SDS011;41452;42.780;23.116;2023-03-23T07:05:09;25.95;;;14.68;;
55589;SDS011;41452;42.780;23.116;2023-03-23T07:07:36;27.23;;;14.85;;
55589;SDS011;41452;42.780;23.116;2023-03-23T07:10:03;27.60;;;13.40;;
55589;SDS011;41452;42.780;23.116;2023-03-23T07:12:29;24.35;;;13.63;;
55589;SDS011;41452;42.780;23.116;2023-03-23T07:14:55;22.90;;;13.25;;
55589;SDS011;41452;42.780;23.116;2023-03-23T07:17:20;24.75;;;13.00;;
55589;SDS011;41452;42.780;23.116;2023-03-23T07:19:46;20.67;;;11.13;;
55589;SDS011;41452;42.780;23.116;2023-03-23T07:22:12;17.48;;;10.23;;
55589;SDS011;41452;42.780;23.116;2023-03-23T07:24:37;15.27;;;8.93;;
55589;SDS011;41452;42.780;23.116;2023-03-23T07:27:02;17.25;;;8.80;;
55589;SDS011;41452;42.780;23.116;2023-03-23T07:29:28;17.85;;;10.35;;
55589;SDS011;41452;42.780;23.116;2023-03-23T07:31:54;19.88;;;10.30;;
55589;SDS011;41452;42.780;23.116;2023-03-23T07:34:19;19.38;;;9.75;;
55589;SDS011;41452;42.780;23.116;2023-03-23T07:36:45;21.00;;;11.38;;
55589;SDS011;41452;42.780;23.116;2023-03-23T07:39:11;17.95;;;9.30;;
55589;SDS011;41452;42.780;23.116;2023-03-23T07:41:37;17.48;;;10.68;;
55589;SDS011;41452;42.780;23.116;2023-03-23T07:44:04;19.23;;;10.48;;
55589;SDS011;41452;42.780;23.116;2023-03-23T07:46:30;16.55;;;10.07;;
55589;SDS011;41452;42.780;23.116;2023-03-23T07:48:56;18.20;;;10.73;;
55589;SDS011;41452;42.780;23.116;2023-03-23T07:51:22;18.02;;;10.77;;
55589;SDS011;41452;42.780;23.116;2023-03-23T07:53:48;17.35;;;9.60;;
55589;SDS011;41452;42.780;23.116;2023-03-23T07:56:15;18.58;;;8.82;;
55589;SDS011;41452;42.780;23.116;2023-03-23T07:58:43;20.75;;;10.25;;
55589;SDS011;41452;42.780;23.116;2023-03-23T08:01:10;17.65;;;10.57;;
55589;SDS011;41452;42.780;23.116;2023-03-23T08:03:35;16.90;;;9.85;;
55589;SDS011;41452;42.780;23.116;2023-03-23T08:06:02;17.35;;;9.88;;
55589;SDS011;41452;42.780;23.116;2023-03-23T08:08:27;18.35;;;9.98;;
55589;SDS011;41452;42.780;23.116;2023-03-23T08:10:53;20.75;;;10.68;;
55589;SDS011;41452;42.780;23.116;2023-03-23T08:13:18;16.15;;;8.85;;
55589;SDS011;41452;42.780;23.116;2023-03-23T08:15:44;14.52;;;7.72;;
55589;SDS011;41452;42.780;23.116;2023-03-23T08:18:10;13.18;;;7.60;;
55589;SDS011;41452;42.780;23.116;2023-03-23T08:20:36;15.30;;;8.80;;
55589;SDS011;41452;42.780;23.116;2023-03-23T08:23:02;15.13;;;8.23;;
55589;SDS011;41452;42.780;23.116;2023-03-23T08:25:29;16.65;;;9.00;;
55589;SDS011;41452;42.780;23.116;2023-03-23T08:27:56;14.45;;;8.18;;
55589;SDS011;41452;42.780;23.116;2023-03-23T08:30:22;12.45;;;7.00;;
55589;SDS011;41452;42.780;23.116;2023-03-23T08:32:51;14.00;;;7.18;;
55589;SDS011;41452;42.780;23.116;2023-03-23T08:35:17;12.38;;;7.70;;
55589;SDS011;41452;42.780;23.116;2023-03-23T08:37:43;15.18;;;7.07;;
55589;SDS011;41452;42.780;23.116;2023-03-23T08:40:10;10.57;;;6.75;;
55589;SDS011;41452;42.780;23.116;2023-03-23T08:42:38;9.57;;;5.60;;
55589;SDS011;41452;42.780;23.116;2023-03-23T08:45:06;12.27;;;6.65;;
55589;SDS011;41452;42.780;23.116;2023-03-23T08:47:33;13.80;;;7.60;;
55589;SDS011;41452;42.780;23.116;2023-03-23T08:50:00;17.10;;;8.85;;
55589;SDS011;41452;42.780;23.116;2023-03-23T08:52:27;13.52;;;7.78;;
55589;SDS011;41452;42.780;23.116;2023-03-23T08:54:53;12.93;;;7.30;;
55589;SDS011;41452;42.780;23.116;2023-03-23T08:57:19;11.85;;;6.55;;
55589;SDS011;41452;42.780;23.116;2023-03-23T08:59:44;13.55;;;7.00;;
55589;SDS011;41452;42.780;23.116;2023-03-23T09:02:10;10.90;;;7.00;;
55589;SDS011;41452;42.780;23.116;2023-03-23T09:04:39;12.05;;;7.38;;
55589;SDS011;41452;42.780;23.116;2023-03-23T09:07:07;12.38;;;7.15;;
55589;SDS011;41452;42.780;23.116;2023-03-23T09:09:34;8.52;;;5.50;;
55589;SDS011;41452;42.780;23.116;2023-03-23T09:11:59;17.25;;;6.28;;
55589;SDS011;41452;42.780;23.116;2023-03-23T09:14:25;9.52;;;5.32;;
55589;SDS011;41452;42.780;23.116;2023-03-23T09:16:50;10.32;;;6.45;;
55589;SDS011;41452;42.780;23.116;2023-03-23T09:19:16;11.63;;;5.93;;
55589;SDS011;41452;42.780;23.116;2023-03-23T09:21:41;14.55;;;6.53;;
55589;SDS011;41452;42.780;23.116;2023-03-23T09:24:07;11.32;;;6.20;;
55589;SDS011;41452;42.780;23.116;2023-03-23T09:26:32;12.35;;;6.63;;
55589;SDS011;41452;42.780;23.116;2023-03-23T09:28:58;10.60;;;6.15;;
55589;SDS011;41452;42.780;23.116;2023-03-23T09:31:23;11.60;;;6.43;;
55589;SDS011;41452;42.780;23.116;2023-03-23T09:33:51;11.95;;;6.50;;
55589;SDS011;41452;42.780;23.116;2023-03-23T09:36:21;9.85;;;6.80;;
55589;SDS011;41452;42.780;23.116;2023-03-23T09:38:47;13.32;;;7.15;;
55589;SDS011;41452;42.780;23.116;2023-03-23T09:44:17;12.65;;;6.63;;
55589;SDS011;41452;42.780;23.116;2023-03-23T09:55:08;9.85;;;6.13;;
55589;SDS011;41452;42.780;23.116;2023-03-23T09:57:54;11.13;;;5.95;;
55589;SDS011;41452;42.780;23.116;2023-03-23T10:00:31;10.85;;;6.30;;
55589;SDS011;41452;42.780;23.116;2023-03-23T10:05:31;8.65;;;5.78;;
55589;SDS011;41452;42.780;23.116;2023-03-23T10:11:28;9.07;;;5.50;;
55589;SDS011;41452;42.780;23.116;2023-03-23T10:16:43;10.05;;;5.60;;
55589;SDS011;41452;42.780;23.116;2023-03-23T10:22:22;11.15;;;6.15;;
55589;SDS011;41452;42.780;23.116;2023-03-23T10:27:45;11.02;;;5.93;;
55589;SDS011;41452;42.780;23.116;2023-03-23T10:30:19;10.43;;;5.72;;
55589;SDS011;41452;42.780;23.116;2023-03-23T10:32:53;11.75;;;6.90;;
55589;SDS011;41452;42.780;23.116;2023-03-23T10:35:28;9.15;;;6.00;;
55589;SDS011;41452;42.780;23.116;2023-03-23T10:38:00;12.15;;;6.65;;
55589;SDS011;41452;42.780;23.116;2023-03-23T10:40:29;9.90;;;5.93;;
55589;SDS011;41452;42.780;23.116;2023-03-23T10:42:57;9.85;;;5.53;;
55589;SDS011;41452;42.780;23.116;2023-03-23T10:45:25;10.73;;;6.60;;
55589;SDS011;41452;42.780;23.116;2023-03-23T10:47:56;10.40;;;6.97;;
55589;SDS011;41452;42.780;23.116;2023-03-23T10:50:27;16.33;;;6.55;;
55589;SDS011;41452;42.780;23.116;2023-03-23T10:52:56;10.25;;;5.63;;
55589;SDS011;41452;42.780;23.116;2023-03-23T10:55:24;14.00;;;6.35;;
55589;SDS011;41452;42.780;23.116;2023-03-23T10:58:03;10.10;;;6.35;;
55589;SDS011;41452;42.780;23.116;2023-03-23T11:00:31;14.40;;;6.13;;
55589;SDS011;41452;42.780;23.116;2023-03-23T11:03:57;9.73;;;6.20;;
55589;SDS011;41452;42.780;23.116;2023-03-23T11:05:55;11.57;;;6.82;;
55589;SDS011;41452;42.780;23.116;2023-03-23T11:08:25;9.88;;;6.25;;
55589;SDS011;41452;42.780;23.116;2023-03-23T11:11:14;9.98;;;5.85;;
55589;SDS011;41452;42.780;23.116;2023-03-23T11:13:44;10.38;;;6.22;;
55589;SDS011;41452;42.780;23.116;2023-03-23T11:16:22;16.52;;;7.82;;
55589;SDS011;41452;42.780;23.116;2023-03-23T11:18:52;13.40;;;5.63;;
55589;SDS011;41452;42.780;23.116;2023-03-23T11:21:19;9.35;;;5.47;;
55589;SDS011;41452;42.780;23.116;2023-03-23T11:23:48;11.75;;;5.40;;
55589;SDS011;41452;42.780;23.116;2023-03-23T11:26:17;12.15;;;6.20;;
55589;SDS011;41452;42.780;23.116;2023-03-23T11:31:30;10.88;;;6.65;;
55589;SDS011;41452;42.780;23.116;2023-03-23T11:34:09;11.68;;;6.50;;
55589;SDS011;41452;42.780;23.116;2023-03-23T11:36:42;12.00;;;5.78;;
55589;SDS011;41452;42.780;23.116;2023-03-23T11:39:20;8.85;;;5.80;;
55589;SDS011;41452;42.780;23.116;2023-03-23T11:41:46;10.00;;;6.22;;
55589;SDS011;41452;42.780;23.116;2023-03-23T11:44:13;9.82;;;5.70;;
55589;SDS011;41452;42.780;23.116;2023-03-23T11:49:26;8.73;;;5.63;;
55589;SDS011;41452;42.780;23.116;2023-03-23T11:54:52;10.20;;;4.97;;
55589;SDS011;41452;42.780;23.116;2023-03-23T11:57:23;13.50;;;6.68;;
55589;SDS011;41452;42.780;23.116;2023-03-23T11:59:49;8.77;;;5.93;;
55589;SDS011;41452;42.780;23.116;2023-03-23T12:07:46;8.48;;;5.25;;
55589;SDS011;41452;42.780;23.116;2023-03-23T12:10:25;8.30;;;5.32;;
55589;SDS011;41452;42.780;23.116;2023-03-23T12:18:40;11.00;;;6.38;;
55589;SDS011;41452;42.780;23.116;2023-03-23T12:21:37;8.82;;;5.68;;
55589;SDS011;41452;42.780;23.116;2023-03-23T12:24:24;8.23;;;5.68;;
55589;SDS011;41452;42.780;23.116;2023-03-23T12:29:47;8.77;;;5.45;;
55589;SDS011;41452;42.780;23.116;2023-03-23T12:40:57;8.10;;;4.90;;
55589;SDS011;41452;42.780;23.116;2023-03-23T12:51:40;8.13;;;5.07;;
55589;SDS011;41452;42.780;23.116;2023-03-23T13:02:22;9.35;;;5.55;;
55589;SDS011;41452;42.780;23.116;2023-03-23T13:05:07;8.82;;;5.05;;
55589;SDS011;41452;42.780;23.116;2023-03-23T13:07:38;9.75;;;5.63;;
55589;SDS011;41452;42.780;23.116;2023-03-23T13:10:18;10.10;;;5.90;;
55589;SDS011;41452;42.780;23.116;2023-03-23T13:12:47;8.82;;;5.47;;
55589;SDS011;41452;42.780;23.116;2023-03-23T13:15:22;8.10;;;5.30;;
55589;SDS011;41452;42.780;23.116;2023-03-23T13:24:00;11.60;;;5.80;;
55589;SDS011;41452;42.780;23.116;2023-03-23T13:26:29;10.52;;;5.80;;
55589;SDS011;41452;42.780;23.116;2023-03-23T13:28:57;9.55;;;5.38;;
55589;SDS011;41452;42.780;23.116;2023-03-23T13:31:37;7.75;;;5.15;;
55589;SDS011;41452;42.780;23.116;2023-03-23T13:37:30;8.70;;;5.07;;
55589;SDS011;41452;42.780;23.116;2023-03-23T13:42:25;7.00;;;4.03;;
55589;SDS011;41452;42.780;23.116;2023-03-23T14:05:39;6.05;;;4.43;;
55589;SDS011;41452;42.780;23.116;2023-03-23T14:09:03;7.45;;;4.20;;
55589;SDS011;41452;42.780;23.116;2023-03-23T14:11:01;8.98;;;5.22;;
55589;SDS011;41452;42.780;23.116;2023-03-23T14:14:07;8.73;;;4.25;;
55589;SDS011;41452;42.780;23.116;2023-03-23T14:16:45;9.38;;;5.22;;
55589;SDS011;41452;42.780;23.116;2023-03-23T14:21:51;6.53;;;4.05;;
55589;SDS011;41452;42.780;23.116;2023-03-23T14:24:28;7.90;;;4.30;;
55589;SDS011;41452;42.780;23.116;2023-03-23T14:27:02;5.75;;;3.45;;
55589;SDS011;41452;42.780;23.116;2023-03-23T14:29:35;7.13;;;4.22;;
55589;SDS011;41452;42.780;23.116;2023-03-23T14:32:00;7.65;;;4.43;;
55589;SDS011;41452;42.780;23.116;2023-03-23T14:34:27;7.65;;;4.20;;
55589;SDS011;41452;42.780;23.116;2023-03-23T14:36:56;6.10;;;3.80;;
55589;SDS011;41452;42.780;23.116;2023-03-23T14:39:26;9.70;;;4.13;;
55589;SDS011;41452;42.780;23.116;2023-03-23T14:41:54;7.45;;;4.20;;
55589;SDS011;41452;42.780;23.116;2023-03-23T14:44:25;6.03;;;3.85;;
55589;SDS011;41452;42.780;23.116;2023-03-23T14:46:53;6.80;;;3.47;;
55589;SDS011;41452;42.780;23.116;2023-03-23T14:49:23;6.05;;;3.65;;
55589;SDS011;41452;42.780;23.116;2023-03-23T14:51:54;6.13;;;3.70;;
55589;SDS011;41452;42.780;23.116;2023-03-23T14:54:27;6.53;;;3.80;;
55589;SDS011;41452;42.780;23.116;2023-03-23T14:56:54;6.65;;;4.20;;
55589;SDS011;41452;42.780;23.116;2023-03-23T14:59:20;7.50;;;4.28;;
55589;SDS011;41452;42.780;23.116;2023-03-23T15:01:47;7.43;;;3.75;;
55589;SDS011;41452;42.780;23.116;2023-03-23T15:06:49;8.25;;;3.67;;
55589;SDS011;41452;42.780;23.116;2023-03-23T15:09:20;7.55;;;4.43;;
55589;SDS011;41452;42.780;23.116;2023-03-23T15:12:05;6.20;;;4.03;;
55589;SDS011;41452;42.780;23.116;2023-03-23T15:14:43;8.55;;;4.20;;
55589;SDS011;41452;42.780;23.116;2023-03-23T15:17:34;6.40;;;3.80;;
55589;SDS011;41452;42.780;23.116;2023-03-23T15:20:07;5.93;;;3.45;;
55589;SDS011;41452;42.780;23.116;2023-03-23T15:22:49;6.80;;;4.30;;
55589;SDS011;41452;42.780;23.116;2023-03-23T15:27:54;6.57;;;4.03;;
55589;SDS011;41452;42.780;23.116;2023-03-23T15:32:49;7.88;;;4.45;;
55589;SDS011;41452;42.780;23.116;2023-03-23T15:35:18;6.45;;;3.95;;
55589;SDS011;41452;42.780;23.116;2023-03-23T15:37:56;8.50;;;4.95;;
55589;SDS011;41452;42.780;23.116;2023-03-23T15:40:25;6.60;;;3.40;;
55589;SDS011;41452;42.780;23.116;2023-03-23T15:45:55;7.43;;;3.40;;
55589;SDS011;41452;42.780;23.116;2023-03-23T15:48:25;7.35;;;3.95;;
55589;SDS011;41452;42.780;23.116;2023-03-23T15:50:51;7.18;;;4.20;;
55589;SDS011;41452;42.780;23.116;2023-03-23T15:55:53;7.30;;;4.40;;
55589;SDS011;41452;42.780;23.116;2023-03-23T15:58:19;8.07;;;3.95;;
55589;SDS011;41452;42.780;23.116;2023-03-23T16:00:45;8.63;;;4.65;;
55589;SDS011;41452;42.780;23.116;2023-03-23T16:03:12;5.80;;;3.60;;
55589;SDS011;41452;42.780;23.116;2023-03-23T16:05:44;8.45;;;4.50;;
55589;SDS011;41452;42.780;23.116;2023-03-23T16:08:10;12.20;;;4.97;;
55589;SDS011;41452;42.780;23.116;2023-03-23T16:10:36;8.35;;;4.43;;
55589;SDS011;41452;42.780;23.116;2023-03-23T16:13:01;13.38;;;4.70;;
55589;SDS011;41452;42.780;23.116;2023-03-23T16:15:29;9.02;;;4.60;;
55589;SDS011;41452;42.780;23.116;2023-03-23T16:17:55;8.85;;;4.63;;
55589;SDS011;41452;42.780;23.116;2023-03-23T16:20:21;7.45;;;5.18;;
55589;SDS011;41452;42.780;23.116;2023-03-23T16:22:47;7.28;;;4.70;;
55589;SDS011;41452;42.780;23.116;2023-03-23T16:25:14;7.88;;;5.13;;
55589;SDS011;41452;42.780;23.116;2023-03-23T16:27:40;8.25;;;4.75;;
55589;SDS011;41452;42.780;23.116;2023-03-23T16:30:40;8.43;;;5.38;;
55589;SDS011;41452;42.780;23.116;2023-03-23T16:32:58;9.20;;;5.68;;
55589;SDS011;41452;42.780;23.116;2023-03-23T16:35:24;7.88;;;5.10;;
55589;SDS011;41452;42.780;23.116;2023-03-23T16:37:50;8.32;;;5.00;;
55589;SDS011;41452;42.780;23.116;2023-03-23T16:40:18;7.80;;;5.53;;
55589;SDS011;41452;42.780;23.116;2023-03-23T16:42:44;8.45;;;5.22;;
55589;SDS011;41452;42.780;23.116;2023-03-23T16:45:11;8.13;;;4.82;;
55589;SDS011;41452;42.780;23.116;2023-03-23T16:47:37;12.57;;;5.35;;
55589;SDS011;41452;42.780;23.116;2023-03-23T16:50:03;10.35;;;5.70;;
55589;SDS011;41452;42.780;23.116;2023-03-23T16:52:36;11.48;;;5.35;;